sensor_id;sensor_type;location;lat;lon;timestamp;temperature;humidity
17148;DHT22;8689;47.364;8.796;2023-07-13T00:02:08;15.30;99.90
17148;DHT22;8689;47.364;8.796;2023-07-13T00:04:36;15.30;99.90
17148;DHT22;8689;47.364;8.796;2023-07-13T00:07:03;15.40;99.90
17148;DHT22;8689;47.364;8.796;2023-07-13T00:09:31;15.50;99.90
17148;DHT22;8689;47.364;8.796;2023-07-13T00:11:58;15.40;99.90
17148;DHT22;8689;47.364;8.796;2023-07-13T00:14:28;15.40;99.90
17148;DHT22;8689;47.364;8.796;2023-07-13T00:16:58;15.40;99.90
17148;DHT22;8689;47.364;8.796;2023-07-13T00:19:26;15.40;99.90
17148;DHT22;8689;47.364;8.796;2023-07-13T00:21:54;15.30;99.90
17148;DHT22;8689;47.364;8.796;2023-07-13T00:24:21;15.40;99.90
17148;DHT22;8689;47.364;8.796;2023-07-13T00:26:49;15.40;99.90
17148;DHT22;8689;47.364;8.796;2023-07-13T00:29:16;15.40;99.90
17148;DHT22;8689;47.364;8.796;2023-07-13T00:31:44;15.40;99.90
17148;DHT22;8689;47.364;8.796;2023-07-13T00:34:13;15.30;99.90
17148;DHT22;8689;47.364;8.796;2023-07-13T00:36:40;15.40;99.90
17148;DHT22;8689;47.364;8.796;2023-07-13T00:39:07;15.40;99.90
17148;DHT22;8689;47.364;8.796;2023-07-13T00:41:34;15.40;99.90
17148;DHT22;8689;47.364;8.796;2023-07-13T00:44:02;15.30;99.90
17148;DHT22;8689;47.364;8.796;2023-07-13T00:46:31;15.30;99.90
17148;DHT22;8689;47.364;8.796;2023-07-13T00:49:01;15.30;99.90
17148;DHT22;8689;47.364;8.796;2023-07-13T00:51:38;15.30;99.90
17148;DHT22;8689;47.364;8.796;2023-07-13T00:54:11;15.30;99.90
17148;DHT22;8689;47.364;8.796;2023-07-13T00:56:41;15.30;99.90
17148;DHT22;8689;47.364;8.796;2023-07-13T00:59:12;15.20;99.90
17148;DHT22;8689;47.364;8.796;2023-07-13T01:01:40;15.20;99.90
17148;DHT22;8689;47.364;8.796;2023-07-13T01:04:08;15.20;99.90
17148;DHT22;8689;47.364;8.796;2023-07-13T01:06:38;15.20;99.90
17148;DHT22;8689;47.364;8.796;2023-07-13T01:09:07;15.20;99.90
17148;DHT22;8689;47.364;8.796;2023-07-13T01:11:36;15.20;99.90
17148;DHT22;8689;47.364;8.796;2023-07-13T01:14:04;15.20;99.90
17148;DHT22;8689;47.364;8.796;2023-07-13T01:16:34;15.10;99.90
17148;DHT22;8689;47.364;8.796;2023-07-13T01:19:07;15.20;99.90
17148;DHT22;8689;47.364;8.796;2023-07-13T01:21:38;15.20;99.90
17148;DHT22;8689;47.364;8.796;2023-07-13T01:24:09;15.20;99.90
17148;DHT22;8689;47.364;8.796;2023-07-13T01:26:36;15.10;99.90
17148;DHT22;8689;47.364;8.796;2023-07-13T01:29:04;15.10;99.90
17148;DHT22;8689;47.364;8.796;2023-07-13T01:31:31;15.10;99.90
17148;DHT22;8689;47.364;8.796;2023-07-13T01:33:58;15.10;99.90
17148;DHT22;8689;47.364;8.796;2023-07-13T01:36:26;15.10;99.90
17148;DHT22;8689;47.364;8.796;2023-07-13T01:38:55;15.10;99.90
17148;DHT22;8689;47.364;8.796;2023-07-13T01:41:22;15.10;99.90
17148;DHT22;8689;47.364;8.796;2023-07-13T01:43:50;15.10;99.90
17148;DHT22;8689;47.364;8.796;2023-07-13T01:46:17;15.10;99.90
17148;DHT22;8689;47.364;8.796;2023-07-13T01:48:45;15.00;99.90
17148;DHT22;8689;47.364;8.796;2023-07-13T01:51:15;15.00;99.90
17148;DHT22;8689;47.364;8.796;2023-07-13T01:53:42;15.00;99.90
17148;DHT22;8689;47.364;8.796;2023-07-13T01:56:11;15.00;99.90
17148;DHT22;8689;47.364;8.796;2023-07-13T01:58:39;15.00;99.90
17148;DHT22;8689;47.364;8.796;2023-07-13T02:01:07;15.00;99.90
17148;DHT22;8689;47.364;8.796;2023-07-13T02:03:36;15.10;99.90
17148;DHT22;8689;47.364;8.796;2023-07-13T02:06:04;15.10;99.90
17148;DHT22;8689;47.364;8.796;2023-07-13T02:08:32;15.10;99.90
17148;DHT22;8689;47.364;8.796;2023-07-13T02:11:00;15.10;99.90
17148;DHT22;8689;47.364;8.796;2023-07-13T02:13:29;15.10;99.90
17148;DHT22;8689;47.364;8.796;2023-07-13T02:15:57;15.10;99.90
17148;DHT22;8689;47.364;8.796;2023-07-13T02:18:25;15.10;99.90
17148;DHT22;8689;47.364;8.796;2023-07-13T02:20:52;15.20;99.90
17148;DHT22;8689;47.364;8.796;2023-07-13T02:23:20;15.20;99.90
17148;DHT22;8689;47.364;8.796;2023-07-13T02:25:54;15.20;99.90
17148;DHT22;8689;47.364;8.796;2023-07-13T02:28:21;15.20;99.90
17148;DHT22;8689;47.364;8.796;2023-07-13T02:30:50;15.20;99.90
17148;DHT22;8689;47.364;8.796;2023-07-13T02:33:18;15.20;99.90
17148;DHT22;8689;47.364;8.796;2023-07-13T02:35:45;15.30;99.90
17148;DHT22;8689;47.364;8.796;2023-07-13T02:38:13;15.30;99.90
17148;DHT22;8689;47.364;8.796;2023-07-13T02:40:40;15.30;99.90
17148;DHT22;8689;47.364;8.796;2023-07-13T02:43:07;15.30;99.90
17148;DHT22;8689;47.364;8.796;2023-07-13T02:45:36;15.30;99.90
17148;DHT22;8689;47.364;8.796;2023-07-13T02:48:06;15.30;99.90
17148;DHT22;8689;47.364;8.796;2023-07-13T02:50:33;15.30;99.90
17148;DHT22;8689;47.364;8.796;2023-07-13T02:53:01;15.30;99.90
17148;DHT22;8689;47.364;8.796;2023-07-13T02:55:28;15.30;99.90
17148;DHT22;8689;47.364;8.796;2023-07-13T02:57:56;15.30;99.90
17148;DHT22;8689;47.364;8.796;2023-07-13T03:00:24;15.30;99.90
17148;DHT22;8689;47.364;8.796;2023-07-13T03:02:52;15.30;99.90
17148;DHT22;8689;47.364;8.796;2023-07-13T03:05:24;15.30;99.90
17148;DHT22;8689;47.364;8.796;2023-07-13T03:07:52;15.30;99.90
17148;DHT22;8689;47.364;8.796;2023-07-13T03:10:20;15.30;99.90
17148;DHT22;8689;47.364;8.796;2023-07-13T03:12:48;15.30;99.90
17148;DHT22;8689;47.364;8.796;2023-07-13T03:15:15;15.30;99.90
17148;DHT22;8689;47.364;8.796;2023-07-13T03:17:42;15.30;99.90
17148;DHT22;8689;47.364;8.796;2023-07-13T03:20:11;15.20;99.90
17148;DHT22;8689;47.364;8.796;2023-07-13T03:22:40;15.20;99.90
17148;DHT22;8689;47.364;8.796;2023-07-13T03:25:08;15.20;99.90
17148;DHT22;8689;47.364;8.796;2023-07-13T03:27:36;15.20;99.90
17148;DHT22;8689;47.364;8.796;2023-07-13T03:30:05;15.30;99.90
17148;DHT22;8689;47.364;8.796;2023-07-13T03:32:33;15.30;99.90
17148;DHT22;8689;47.364;8.796;2023-07-13T03:35:00;15.20;99.90
17148;DHT22;8689;47.364;8.796;2023-07-13T03:37:28;15.30;99.90
17148;DHT22;8689;47.364;8.796;2023-07-13T03:39:57;15.20;99.90
17148;DHT22;8689;47.364;8.796;2023-07-13T03:42:25;15.30;99.90
17148;DHT22;8689;47.364;8.796;2023-07-13T03:44:52;15.30;99.90
17148;DHT22;8689;47.364;8.796;2023-07-13T03:47:20;15.20;99.90
17148;DHT22;8689;47.364;8.796;2023-07-13T03:49:47;15.20;99.90
17148;DHT22;8689;47.364;8.796;2023-07-13T03:52:14;15.20;99.90
17148;DHT22;8689;47.364;8.796;2023-07-13T03:54:41;15.20;99.90
17148;DHT22;8689;47.364;8.796;2023-07-13T03:57:10;15.30;99.90
17148;DHT22;8689;47.364;8.796;2023-07-13T03:59:38;15.20;99.90
17148;DHT22;8689;47.364;8.796;2023-07-13T04:02:06;15.20;99.90
17148;DHT22;8689;47.364;8.796;2023-07-13T04:04:33;15.20;99.90
17148;DHT22;8689;47.364;8.796;2023-07-13T04:07:00;15.20;99.90
17148;DHT22;8689;47.364;8.796;2023-07-13T04:09:28;15.20;99.90
17148;DHT22;8689;47.364;8.796;2023-07-13T04:11:56;15.30;99.90
17148;DHT22;8689;47.364;8.796;2023-07-13T04:14:25;15.30;99.90
17148;DHT22;8689;47.364;8.796;2023-07-13T04:16:52;15.30;99.90
17148;DHT22;8689;47.364;8.796;2023-07-13T04:19:21;15.30;99.90
17148;DHT22;8689;47.364;8.796;2023-07-13T04:21:48;15.30;99.90
17148;DHT22;8689;47.364;8.796;2023-07-13T04:24:15;15.40;99.90
17148;DHT22;8689;47.364;8.796;2023-07-13T04:26:42;15.40;99.90
17148;DHT22;8689;47.364;8.796;2023-07-13T04:29:10;15.40;99.90
17148;DHT22;8689;47.364;8.796;2023-07-13T04:31:39;15.40;99.90
17148;DHT22;8689;47.364;8.796;2023-07-13T04:34:07;15.40;99.90
17148;DHT22;8689;47.364;8.796;2023-07-13T04:36:35;15.50;99.90
17148;DHT22;8689;47.364;8.796;2023-07-13T04:39:03;15.60;99.90
17148;DHT22;8689;47.364;8.796;2023-07-13T04:41:30;15.70;99.90
17148;DHT22;8689;47.364;8.796;2023-07-13T04:43:59;15.80;99.90
17148;DHT22;8689;47.364;8.796;2023-07-13T04:46:31;15.90;99.90
17148;DHT22;8689;47.364;8.796;2023-07-13T04:49:01;15.90;99.90
17148;DHT22;8689;47.364;8.796;2023-07-13T04:51:29;15.90;99.90
17148;DHT22;8689;47.364;8.796;2023-07-13T04:53:57;15.90;99.90
17148;DHT22;8689;47.364;8.796;2023-07-13T04:59:04;15.80;99.90
17148;DHT22;8689;47.364;8.796;2023-07-13T05:01:31;15.80;99.90
17148;DHT22;8689;47.364;8.796;2023-07-13T05:04:00;15.70;99.90
17148;DHT22;8689;47.364;8.796;2023-07-13T05:06:27;15.80;99.90
17148;DHT22;8689;47.364;8.796;2023-07-13T05:08:56;15.80;99.90
17148;DHT22;8689;47.364;8.796;2023-07-13T05:11:23;15.80;99.90
17148;DHT22;8689;47.364;8.796;2023-07-13T05:13:51;15.80;99.90
17148;DHT22;8689;47.364;8.796;2023-07-13T05:16:19;15.80;99.90
17148;DHT22;8689;47.364;8.796;2023-07-13T05:18:47;15.80;99.90
17148;DHT22;8689;47.364;8.796;2023-07-13T05:21:16;15.80;99.90
17148;DHT22;8689;47.364;8.796;2023-07-13T05:23:44;15.90;99.90
17148;DHT22;8689;47.364;8.796;2023-07-13T05:26:12;16.00;99.90
17148;DHT22;8689;47.364;8.796;2023-07-13T05:28:39;16.10;99.90
17148;DHT22;8689;47.364;8.796;2023-07-13T05:31:07;16.10;99.90
17148;DHT22;8689;47.364;8.796;2023-07-13T05:33:36;16.20;99.90
17148;DHT22;8689;47.364;8.796;2023-07-13T05:36:20;16.20;99.90
17148;DHT22;8689;47.364;8.796;2023-07-13T05:38:50;16.20;99.90
17148;DHT22;8689;47.364;8.796;2023-07-13T05:41:20;16.10;99.90
17148;DHT22;8689;47.364;8.796;2023-07-13T05:43:48;16.00;99.90
17148;DHT22;8689;47.364;8.796;2023-07-13T05:46:18;16.00;99.90
17148;DHT22;8689;47.364;8.796;2023-07-13T05:48:48;16.00;99.90
17148;DHT22;8689;47.364;8.796;2023-07-13T05:51:15;15.90;99.90
17148;DHT22;8689;47.364;8.796;2023-07-13T05:53:44;15.90;99.90
17148;DHT22;8689;47.364;8.796;2023-07-13T05:56:12;15.90;99.90
17148;DHT22;8689;47.364;8.796;2023-07-13T05:58:40;15.90;99.90
17148;DHT22;8689;47.364;8.796;2023-07-13T06:01:11;15.90;99.90
17148;DHT22;8689;47.364;8.796;2023-07-13T06:03:39;15.90;99.90
17148;DHT22;8689;47.364;8.796;2023-07-13T06:06:08;15.90;99.90
17148;DHT22;8689;47.364;8.796;2023-07-13T06:08:36;16.00;99.90
17148;DHT22;8689;47.364;8.796;2023-07-13T06:11:07;16.00;99.90
17148;DHT22;8689;47.364;8.796;2023-07-13T06:13:34;15.90;99.90
17148;DHT22;8689;47.364;8.796;2023-07-13T06:16:02;16.00;99.90
17148;DHT22;8689;47.364;8.796;2023-07-13T06:18:31;16.00;99.90
17148;DHT22;8689;47.364;8.796;2023-07-13T06:20:59;15.90;99.90
17148;DHT22;8689;47.364;8.796;2023-07-13T06:23:26;15.90;99.90
17148;DHT22;8689;47.364;8.796;2023-07-13T06:25:54;15.90;99.90
17148;DHT22;8689;47.364;8.796;2023-07-13T06:28:23;16.00;99.90
17148;DHT22;8689;47.364;8.796;2023-07-13T06:30:50;16.00;99.90
17148;DHT22;8689;47.364;8.796;2023-07-13T06:33:18;16.00;99.90
17148;DHT22;8689;47.364;8.796;2023-07-13T06:35:45;16.00;99.90
17148;DHT22;8689;47.364;8.796;2023-07-13T06:38:12;16.00;99.90
17148;DHT22;8689;47.364;8.796;2023-07-13T06:40:39;16.00;99.90
17148;DHT22;8689;47.364;8.796;2023-07-13T06:43:06;16.00;99.90
17148;DHT22;8689;47.364;8.796;2023-07-13T06:45:41;16.00;99.90
17148;DHT22;8689;47.364;8.796;2023-07-13T06:48:11;16.00;99.90
17148;DHT22;8689;47.364;8.796;2023-07-13T06:50:38;16.10;99.90
17148;DHT22;8689;47.364;8.796;2023-07-13T06:53:05;16.10;99.90
17148;DHT22;8689;47.364;8.796;2023-07-13T06:55:33;16.20;99.90
17148;DHT22;8689;47.364;8.796;2023-07-13T06:58:00;16.30;99.90
17148;DHT22;8689;47.364;8.796;2023-07-13T07:00:27;16.40;99.90
17148;DHT22;8689;47.364;8.796;2023-07-13T07:02:56;16.40;99.90
17148;DHT22;8689;47.364;8.796;2023-07-13T07:05:23;16.50;99.90
17148;DHT22;8689;47.364;8.796;2023-07-13T07:07:53;16.60;99.90
17148;DHT22;8689;47.364;8.796;2023-07-13T07:10:21;16.60;99.90
17148;DHT22;8689;47.364;8.796;2023-07-13T07:12:48;16.60;99.90
17148;DHT22;8689;47.364;8.796;2023-07-13T07:15:17;16.50;99.90
17148;DHT22;8689;47.364;8.796;2023-07-13T07:17:45;16.50;99.90
17148;DHT22;8689;47.364;8.796;2023-07-13T07:20:14;16.40;99.90
17148;DHT22;8689;47.364;8.796;2023-07-13T07:22:41;16.40;99.90
17148;DHT22;8689;47.364;8.796;2023-07-13T07:25:09;16.40;99.90
17148;DHT22;8689;47.364;8.796;2023-07-13T07:27:38;16.40;99.90
17148;DHT22;8689;47.364;8.796;2023-07-13T07:30:07;16.40;99.90
17148;DHT22;8689;47.364;8.796;2023-07-13T07:32:35;16.60;99.90
17148;DHT22;8689;47.364;8.796;2023-07-13T07:35:02;16.70;99.90
17148;DHT22;8689;47.364;8.796;2023-07-13T07:37:33;16.90;99.90
17148;DHT22;8689;47.364;8.796;2023-07-13T07:40:00;17.10;99.90
17148;DHT22;8689;47.364;8.796;2023-07-13T07:42:30;17.30;99.90
17148;DHT22;8689;47.364;8.796;2023-07-13T07:44:58;17.50;99.90
17148;DHT22;8689;47.364;8.796;2023-07-13T07:47:26;17.50;99.90
17148;DHT22;8689;47.364;8.796;2023-07-13T07:49:54;17.50;99.90
17148;DHT22;8689;47.364;8.796;2023-07-13T07:52:22;17.50;99.90
17148;DHT22;8689;47.364;8.796;2023-07-13T07:54:51;17.70;99.90
17148;DHT22;8689;47.364;8.796;2023-07-13T07:57:18;17.70;99.90
17148;DHT22;8689;47.364;8.796;2023-07-13T07:59:46;17.60;99.90
17148;DHT22;8689;47.364;8.796;2023-07-13T08:02:14;17.70;99.90
17148;DHT22;8689;47.364;8.796;2023-07-13T08:04:41;18.00;99.90
17148;DHT22;8689;47.364;8.796;2023-07-13T08:07:09;18.30;99.90
17148;DHT22;8689;47.364;8.796;2023-07-13T08:09:37;18.60;99.90
17148;DHT22;8689;47.364;8.796;2023-07-13T08:12:08;18.90;99.90
17148;DHT22;8689;47.364;8.796;2023-07-13T08:14:36;19.00;99.90
17148;DHT22;8689;47.364;8.796;2023-07-13T08:17:04;19.00;99.90
17148;DHT22;8689;47.364;8.796;2023-07-13T08:19:33;19.00;99.90
17148;DHT22;8689;47.364;8.796;2023-07-13T08:22:00;19.00;99.90
17148;DHT22;8689;47.364;8.796;2023-07-13T08:24:28;19.00;99.90
17148;DHT22;8689;47.364;8.796;2023-07-13T08:26:55;19.00;99.90
17148;DHT22;8689;47.364;8.796;2023-07-13T08:29:25;19.00;99.90
17148;DHT22;8689;47.364;8.796;2023-07-13T08:31:52;19.00;99.90
17148;DHT22;8689;47.364;8.796;2023-07-13T08:34:20;19.00;99.90
17148;DHT22;8689;47.364;8.796;2023-07-13T08:37:02;19.00;99.90
17148;DHT22;8689;47.364;8.796;2023-07-13T08:39:30;18.90;99.90
17148;DHT22;8689;47.364;8.796;2023-07-13T08:42:02;18.90;99.90
17148;DHT22;8689;47.364;8.796;2023-07-13T08:44:40;18.70;99.90
17148;DHT22;8689;47.364;8.796;2023-07-13T08:47:14;19.00;99.90
17148;DHT22;8689;47.364;8.796;2023-07-13T08:49:43;19.70;99.90
17148;DHT22;8689;47.364;8.796;2023-07-13T08:52:14;20.50;99.90
17148;DHT22;8689;47.364;8.796;2023-07-13T08:54:47;21.20;99.90
17148;DHT22;8689;47.364;8.796;2023-07-13T08:57:18;21.60;99.90
17148;DHT22;8689;47.364;8.796;2023-07-13T08:59:48;21.80;99.90
17148;DHT22;8689;47.364;8.796;2023-07-13T09:02:26;21.90;99.90
17148;DHT22;8689;47.364;8.796;2023-07-13T09:04:59;21.80;99.90
17148;DHT22;8689;47.364;8.796;2023-07-13T09:07:39;21.90;99.90
17148;DHT22;8689;47.364;8.796;2023-07-13T09:10:15;22.30;99.90
17148;DHT22;8689;47.364;8.796;2023-07-13T09:12:50;22.40;99.90
17148;DHT22;8689;47.364;8.796;2023-07-13T09:15:34;22.20;99.90
17148;DHT22;8689;47.364;8.796;2023-07-13T09:18:06;22.00;99.90
17148;DHT22;8689;47.364;8.796;2023-07-13T09:20:37;22.00;99.90
17148;DHT22;8689;47.364;8.796;2023-07-13T09:23:12;21.80;99.90
17148;DHT22;8689;47.364;8.796;2023-07-13T09:25:43;21.60;99.90
17148;DHT22;8689;47.364;8.796;2023-07-13T09:28:17;21.50;99.90
17148;DHT22;8689;47.364;8.796;2023-07-13T09:30:51;21.60;99.90
17148;DHT22;8689;47.364;8.796;2023-07-13T09:33:22;21.60;99.90
17148;DHT22;8689;47.364;8.796;2023-07-13T09:35:49;21.40;99.90
17148;DHT22;8689;47.364;8.796;2023-07-13T09:38:18;21.40;99.90
17148;DHT22;8689;47.364;8.796;2023-07-13T09:41:04;21.50;99.90
17148;DHT22;8689;47.364;8.796;2023-07-13T09:43:38;21.40;99.90
17148;DHT22;8689;47.364;8.796;2023-07-13T09:46:20;21.50;99.90
17148;DHT22;8689;47.364;8.796;2023-07-13T09:48:48;21.60;99.90
17148;DHT22;8689;47.364;8.796;2023-07-13T09:51:16;21.60;99.90
17148;DHT22;8689;47.364;8.796;2023-07-13T09:53:44;21.50;99.90
17148;DHT22;8689;47.364;8.796;2023-07-13T09:56:20;21.50;99.90
17148;DHT22;8689;47.364;8.796;2023-07-13T09:58:48;21.30;99.90
17148;DHT22;8689;47.364;8.796;2023-07-13T10:01:31;21.10;99.90
17148;DHT22;8689;47.364;8.796;2023-07-13T10:04:17;21.10;99.90
17148;DHT22;8689;47.364;8.796;2023-07-13T10:06:45;20.90;98.40
17148;DHT22;8689;47.364;8.796;2023-07-13T10:09:16;20.90;99.30
17148;DHT22;8689;47.364;8.796;2023-07-13T10:11:45;21.00;97.20
17148;DHT22;8689;47.364;8.796;2023-07-13T10:14:15;21.20;94.70
17148;DHT22;8689;47.364;8.796;2023-07-13T10:16:45;21.30;94.90
17148;DHT22;8689;47.364;8.796;2023-07-13T10:19:18;21.30;93.90
17148;DHT22;8689;47.364;8.796;2023-07-13T10:21:52;21.30;95.70
17148;DHT22;8689;47.364;8.796;2023-07-13T10:24:27;21.30;95.30
17148;DHT22;8689;47.364;8.796;2023-07-13T10:27:00;21.50;94.90
17148;DHT22;8689;47.364;8.796;2023-07-13T10:29:35;21.50;95.10
17148;DHT22;8689;47.364;8.796;2023-07-13T10:32:08;21.50;94.40
17148;DHT22;8689;47.364;8.796;2023-07-13T10:34:36;21.60;92.90
17148;DHT22;8689;47.364;8.796;2023-07-13T10:37:05;21.90;93.20
17148;DHT22;8689;47.364;8.796;2023-07-13T10:39:35;22.10;92.00
17148;DHT22;8689;47.364;8.796;2023-07-13T10:42:14;22.30;93.00
17148;DHT22;8689;47.364;8.796;2023-07-13T10:44:45;22.60;93.00
17148;DHT22;8689;47.364;8.796;2023-07-13T10:47:16;23.10;89.30
17148;DHT22;8689;47.364;8.796;2023-07-13T10:49:47;23.30;85.40
17148;DHT22;8689;47.364;8.796;2023-07-13T10:52:45;23.40;87.40
17148;DHT22;8689;47.364;8.796;2023-07-13T10:55:33;23.70;85.30
17148;DHT22;8689;47.364;8.796;2023-07-13T10:58:02;23.90;86.90
17148;DHT22;8689;47.364;8.796;2023-07-13T11:00:33;23.80;85.10
17148;DHT22;8689;47.364;8.796;2023-07-13T11:03:14;23.60;84.60
17148;DHT22;8689;47.364;8.796;2023-07-13T11:05:43;23.40;86.70
17148;DHT22;8689;47.364;8.796;2023-07-13T11:08:18;23.20;85.30
17148;DHT22;8689;47.364;8.796;2023-07-13T11:10:51;23.00;85.10
17148;DHT22;8689;47.364;8.796;2023-07-13T11:13:55;22.90;84.80
17148;DHT22;8689;47.364;8.796;2023-07-13T11:16:44;23.20;84.50
17148;DHT22;8689;47.364;8.796;2023-07-13T11:19:41;23.40;88.50
17148;DHT22;8689;47.364;8.796;2023-07-13T11:22:24;23.40;86.90
17148;DHT22;8689;47.364;8.796;2023-07-13T11:25:25;23.50;83.50
17148;DHT22;8689;47.364;8.796;2023-07-13T11:28:06;23.70;81.30
17148;DHT22;8689;47.364;8.796;2023-07-13T11:30:37;23.90;83.30
17148;DHT22;8689;47.364;8.796;2023-07-13T11:33:14;24.10;82.90
17148;DHT22;8689;47.364;8.796;2023-07-13T11:35:51;24.40;81.60
17148;DHT22;8689;47.364;8.796;2023-07-13T11:38:22;25.00;81.50
17148;DHT22;8689;47.364;8.796;2023-07-13T11:40:54;26.00;76.60
17148;DHT22;8689;47.364;8.796;2023-07-13T11:43:36;26.90;74.80
17148;DHT22;8689;47.364;8.796;2023-07-13T11:46:16;27.30;71.80
17148;DHT22;8689;47.364;8.796;2023-07-13T11:48:47;27.60;65.20
17148;DHT22;8689;47.364;8.796;2023-07-13T11:51:21;27.60;67.40
17148;DHT22;8689;47.364;8.796;2023-07-13T11:53:52;27.70;68.20
17148;DHT22;8689;47.364;8.796;2023-07-13T11:56:32;27.80;66.50
17148;DHT22;8689;47.364;8.796;2023-07-13T11:59:13;27.70;64.10
17148;DHT22;8689;47.364;8.796;2023-07-13T12:01:57;27.20;65.70
17148;DHT22;8689;47.364;8.796;2023-07-13T12:04:35;27.30;67.00
17148;DHT22;8689;47.364;8.796;2023-07-13T12:07:11;27.40;65.80
17148;DHT22;8689;47.364;8.796;2023-07-13T12:09:45;27.30;65.30
17148;DHT22;8689;47.364;8.796;2023-07-13T12:12:19;27.70;65.40
17148;DHT22;8689;47.364;8.796;2023-07-13T12:14:46;27.90;63.40
17148;DHT22;8689;47.364;8.796;2023-07-13T12:17:25;27.80;63.30
17148;DHT22;8689;47.364;8.796;2023-07-13T12:20:19;27.70;64.60
17148;DHT22;8689;47.364;8.796;2023-07-13T12:22:49;27.30;65.30
17148;DHT22;8689;47.364;8.796;2023-07-13T12:25:20;27.30;67.00
17148;DHT22;8689;47.364;8.796;2023-07-13T12:27:49;27.20;65.80
17148;DHT22;8689;47.364;8.796;2023-07-13T12:30:26;27.20;67.10
17148;DHT22;8689;47.364;8.796;2023-07-13T12:32:57;27.00;64.60
17148;DHT22;8689;47.364;8.796;2023-07-13T12:35:29;26.50;67.40
17148;DHT22;8689;47.364;8.796;2023-07-13T12:38:02;26.00;68.20
17148;DHT22;8689;47.364;8.796;2023-07-13T12:40:33;25.90;69.50
17148;DHT22;8689;47.364;8.796;2023-07-13T12:43:03;25.80;72.20
17148;DHT22;8689;47.364;8.796;2023-07-13T12:45:32;25.90;69.10
17148;DHT22;8689;47.364;8.796;2023-07-13T12:48:04;26.10;71.60
17148;DHT22;8689;47.364;8.796;2023-07-13T12:50:37;26.50;68.80
17148;DHT22;8689;47.364;8.796;2023-07-13T12:53:13;26.80;69.40
17148;DHT22;8689;47.364;8.796;2023-07-13T12:55:43;27.00;67.40
17148;DHT22;8689;47.364;8.796;2023-07-13T12:58:18;27.30;65.00
17148;DHT22;8689;47.364;8.796;2023-07-13T13:00:50;28.00;65.70
17148;DHT22;8689;47.364;8.796;2023-07-13T13:03:28;28.50;61.30
17148;DHT22;8689;47.364;8.796;2023-07-13T13:06:03;28.50;61.10
17148;DHT22;8689;47.364;8.796;2023-07-13T13:08:33;29.00;63.50
17148;DHT22;8689;47.364;8.796;2023-07-13T13:11:01;29.50;58.70
17148;DHT22;8689;47.364;8.796;2023-07-13T13:13:30;30.20;61.50
17148;DHT22;8689;47.364;8.796;2023-07-13T13:16:02;30.70;54.40
17148;DHT22;8689;47.364;8.796;2023-07-13T13:18:32;30.60;54.60
17148;DHT22;8689;47.364;8.796;2023-07-13T13:21:08;30.60;57.40
17148;DHT22;8689;47.364;8.796;2023-07-13T13:23:49;31.10;58.30
17148;DHT22;8689;47.364;8.796;2023-07-13T13:26:18;31.60;52.20
17148;DHT22;8689;47.364;8.796;2023-07-13T13:28:46;32.00;52.50
17148;DHT22;8689;47.364;8.796;2023-07-13T13:31:15;32.50;51.50
17148;DHT22;8689;47.364;8.796;2023-07-13T13:33:44;32.20;50.10
17148;DHT22;8689;47.364;8.796;2023-07-13T13:36:15;31.40;51.10
17148;DHT22;8689;47.364;8.796;2023-07-13T13:38:45;30.50;52.40
17148;DHT22;8689;47.364;8.796;2023-07-13T13:41:15;30.00;52.80
17148;DHT22;8689;47.364;8.796;2023-07-13T13:43:43;29.20;53.70
17148;DHT22;8689;47.364;8.796;2023-07-13T13:46:17;28.20;57.60
17148;DHT22;8689;47.364;8.796;2023-07-13T13:48:45;27.20;57.40
17148;DHT22;8689;47.364;8.796;2023-07-13T13:51:15;26.30;61.10
17148;DHT22;8689;47.364;8.796;2023-07-13T13:53:44;25.70;62.90
17148;DHT22;8689;47.364;8.796;2023-07-13T13:56:12;25.10;63.20
17148;DHT22;8689;47.364;8.796;2023-07-13T13:58:39;24.70;64.60
17148;DHT22;8689;47.364;8.796;2023-07-13T14:01:12;24.50;64.50
17148;DHT22;8689;47.364;8.796;2023-07-13T14:03:40;24.60;67.00
17148;DHT22;8689;47.364;8.796;2023-07-13T14:06:11;24.90;64.10
17148;DHT22;8689;47.364;8.796;2023-07-13T14:08:39;26.10;62.10
17148;DHT22;8689;47.364;8.796;2023-07-13T14:11:15;26.70;63.10
17148;DHT22;8689;47.364;8.796;2023-07-13T14:13:45;26.70;60.20
17148;DHT22;8689;47.364;8.796;2023-07-13T14:16:17;26.90;62.30
17148;DHT22;8689;47.364;8.796;2023-07-13T14:18:44;27.70;60.50
17148;DHT22;8689;47.364;8.796;2023-07-13T14:21:16;28.50;57.60
17148;DHT22;8689;47.364;8.796;2023-07-13T14:23:45;28.70;57.70
17148;DHT22;8689;47.364;8.796;2023-07-13T14:26:23;29.00;58.40
17148;DHT22;8689;47.364;8.796;2023-07-13T14:28:52;29.40;56.60
17148;DHT22;8689;47.364;8.796;2023-07-13T14:31:20;30.10;53.90
17148;DHT22;8689;47.364;8.796;2023-07-13T14:33:51;30.30;52.60
17148;DHT22;8689;47.364;8.796;2023-07-13T14:36:28;30.60;53.10
17148;DHT22;8689;47.364;8.796;2023-07-13T14:38:56;30.50;53.90
17148;DHT22;8689;47.364;8.796;2023-07-13T14:41:26;30.50;53.30
17148;DHT22;8689;47.364;8.796;2023-07-13T14:43:54;30.60;51.50
17148;DHT22;8689;47.364;8.796;2023-07-13T14:46:29;30.40;52.80
17148;DHT22;8689;47.364;8.796;2023-07-13T14:49:13;29.90;54.30
17148;DHT22;8689;47.364;8.796;2023-07-13T14:51:50;29.90;53.00
17148;DHT22;8689;47.364;8.796;2023-07-13T14:54:26;30.30;53.20
17148;DHT22;8689;47.364;8.796;2023-07-13T14:57:11;30.50;51.90
17148;DHT22;8689;47.364;8.796;2023-07-13T15:00:00;30.40;51.80
17148;DHT22;8689;47.364;8.796;2023-07-13T15:02:31;30.70;51.60
17148;DHT22;8689;47.364;8.796;2023-07-13T15:05:00;30.70;51.10
17148;DHT22;8689;47.364;8.796;2023-07-13T15:07:29;30.40;51.60
17148;DHT22;8689;47.364;8.796;2023-07-13T15:10:01;29.80;52.20
17148;DHT22;8689;47.364;8.796;2023-07-13T15:12:30;29.20;54.30
17148;DHT22;8689;47.364;8.796;2023-07-13T15:14:58;28.30;55.10
17148;DHT22;8689;47.364;8.796;2023-07-13T15:17:31;27.30;56.40
17148;DHT22;8689;47.364;8.796;2023-07-13T15:20:03;26.40;60.70
17148;DHT22;8689;47.364;8.796;2023-07-13T15:22:31;25.80;62.80
17148;DHT22;8689;47.364;8.796;2023-07-13T15:24:58;25.30;64.60
17148;DHT22;8689;47.364;8.796;2023-07-13T15:27:26;24.90;65.10
17148;DHT22;8689;47.364;8.796;2023-07-13T15:29:55;24.70;67.10
17148;DHT22;8689;47.364;8.796;2023-07-13T15:32:22;24.60;67.20
17148;DHT22;8689;47.364;8.796;2023-07-13T15:34:49;24.40;68.10
17148;DHT22;8689;47.364;8.796;2023-07-13T15:37:16;24.30;68.40
17148;DHT22;8689;47.364;8.796;2023-07-13T15:39:46;24.10;69.40
17148;DHT22;8689;47.364;8.796;2023-07-13T15:42:14;24.00;69.40
17148;DHT22;8689;47.364;8.796;2023-07-13T15:44:42;24.30;70.00
17148;DHT22;8689;47.364;8.796;2023-07-13T15:47:12;25.40;68.70
17148;DHT22;8689;47.364;8.796;2023-07-13T15:49:40;26.70;63.40
17148;DHT22;8689;47.364;8.796;2023-07-13T15:52:15;27.80;59.40
17148;DHT22;8689;47.364;8.796;2023-07-13T15:54:43;28.40;58.00
17148;DHT22;8689;47.364;8.796;2023-07-13T15:57:11;29.10;56.00
17148;DHT22;8689;47.364;8.796;2023-07-13T15:59:38;29.40;54.80
17148;DHT22;8689;47.364;8.796;2023-07-13T16:02:17;29.70;53.60
17148;DHT22;8689;47.364;8.796;2023-07-13T16:04:45;30.00;54.20
17148;DHT22;8689;47.364;8.796;2023-07-13T16:07:14;30.10;54.20
17148;DHT22;8689;47.364;8.796;2023-07-13T16:09:43;29.70;52.00